sensor_id;sensor_type;location;lat;lon;timestamp;pressure;altitude;pressure_sealevel;temperature;humidity
54666;BME280;40566;50.006;36.180;2022-11-09T00:02:40;100563.97;;;2.31;75.50
54666;BME280;40566;50.006;36.180;2022-11-09T00:07:41;100562.41;;;2.40;75.28
54666;BME280;40566;50.006;36.180;2022-11-09T00:12:42;100564.88;;;2.36;75.29
54666;BME280;40566;50.006;36.180;2022-11-09T00:17:42;100564.84;;;2.35;75.53
54666;BME280;40566;50.006;36.180;2022-11-09T00:22:46;100569.78;;;2.24;75.79
54666;BME280;40566;50.006;36.180;2022-11-09T00:27:48;100565.41;;;2.18;76.02
54666;BME280;40566;50.006;36.180;2022-11-09T00:32:48;100571.69;;;2.36;75.44
54666;BME280;40566;50.006;36.180;2022-11-09T00:37:49;100574.06;;;2.25;75.54
54666;BME280;40566;50.006;36.180;2022-11-09T00:42:49;100562.34;;;2.36;75.39
54666;BME280;40566;50.006;36.180;2022-11-09T00:47:50;100568.28;;;2.35;75.33
54666;BME280;40566;50.006;36.180;2022-11-09T00:52:51;100577.50;;;2.27;75.72
54666;BME280;40566;50.006;36.180;2022-11-09T00:57:52;100575.94;;;2.35;75.48
54666;BME280;40566;50.006;36.180;2022-11-09T01:02:52;100583.47;;;2.28;75.53
54666;BME280;40566;50.006;36.180;2022-11-09T01:07:53;100573.25;;;2.28;75.61
54666;BME280;40566;50.006;36.180;2022-11-09T01:12:53;100565.75;;;2.35;75.55
54666;BME280;40566;50.006;36.180;2022-11-09T01:17:54;100574.44;;;2.47;75.40
54666;BME280;40566;50.006;36.180;2022-11-09T01:22:54;100568.50;;;2.48;75.25
54666;BME280;40566;50.006;36.180;2022-11-09T01:27:58;100576.34;;;2.57;75.08
54666;BME280;40566;50.006;36.180;2022-11-09T01:32:58;100572.94;;;2.58;74.95
54666;BME280;40566;50.006;36.180;2022-11-09T01:37:59;100571.06;;;2.48;75.33
54666;BME280;40566;50.006;36.180;2022-11-09T01:43:21;100569.28;;;2.44;75.50
54666;BME280;40566;50.006;36.180;2022-11-09T01:54:03;100581.38;;;2.54;75.46
54666;BME280;40566;50.006;36.180;2022-11-09T01:59:12;100585.56;;;2.50;75.28
54666;BME280;40566;50.006;36.180;2022-11-09T02:04:34;100571.38;;;2.65;75.24
54666;BME280;40566;50.006;36.180;2022-11-09T02:09:50;100574.81;;;2.68;74.89
54666;BME280;40566;50.006;36.180;2022-11-09T02:14:52;100586.16;;;2.84;74.85
54666;BME280;40566;50.006;36.180;2022-11-09T02:19:56;100577.63;;;2.81;74.79
54666;BME280;40566;50.006;36.180;2022-11-09T02:24:57;100575.81;;;2.75;74.82
54666;BME280;40566;50.006;36.180;2022-11-09T02:29:58;100587.72;;;2.76;75.08
54666;BME280;40566;50.006;36.180;2022-11-09T02:34:59;100598.06;;;2.82;74.93
54666;BME280;40566;50.006;36.180;2022-11-09T02:40:03;100613.66;;;2.97;74.64
54666;BME280;40566;50.006;36.180;2022-11-09T02:45:07;100616.19;;;2.96;74.80
54666;BME280;40566;50.006;36.180;2022-11-09T02:50:08;100613.63;;;2.94;74.76
54666;BME280;40566;50.006;36.180;2022-11-09T02:55:09;100602.59;;;2.97;74.63
54666;BME280;40566;50.006;36.180;2022-11-09T03:00:10;100606.09;;;3.02;74.75
54666;BME280;40566;50.006;36.180;2022-11-09T03:05:11;100611.13;;;2.99;74.74
54666;BME280;40566;50.006;36.180;2022-11-09T03:10:11;100624.63;;;2.90;75.25
54666;BME280;40566;50.006;36.180;2022-11-09T03:15:12;100623.94;;;3.01;74.81
54666;BME280;40566;50.006;36.180;2022-11-09T03:20:13;100627.34;;;3.01;74.69
54666;BME280;40566;50.006;36.180;2022-11-09T03:25:13;100625.78;;;3.09;74.70
54666;BME280;40566;50.006;36.180;2022-11-09T03:30:14;100625.75;;;3.08;74.46
54666;BME280;40566;50.006;36.180;2022-11-09T03:35:18;100625.06;;;3.16;74.31
54666;BME280;40566;50.006;36.180;2022-11-09T03:40:19;100625.69;;;3.03;74.83
54666;BME280;40566;50.006;36.180;2022-11-09T03:45:20;100622.38;;;3.09;74.76
54666;BME280;40566;50.006;36.180;2022-11-09T03:50:20;100623.22;;;3.09;74.50
54666;BME280;40566;50.006;36.180;2022-11-09T03:55:27;100625.88;;;3.15;74.58
54666;BME280;40566;50.006;36.180;2022-11-09T04:00:28;100623.47;;;3.23;74.22
54666;BME280;40566;50.006;36.180;2022-11-09T04:05:29;100620.84;;;3.18;74.46
54666;BME280;40566;50.006;36.180;2022-11-09T04:10:30;100625.88;;;3.15;74.45
54666;BME280;40566;50.006;36.180;2022-11-09T04:15:30;100623.13;;;3.03;75.02
54666;BME280;40566;50.006;36.180;2022-11-09T04:20:31;100626.59;;;3.07;74.92
54666;BME280;40566;50.006;36.180;2022-11-09T04:25:34;100634.28;;;3.07;74.99
54666;BME280;40566;50.006;36.180;2022-11-09T04:30:36;100635.16;;;3.09;74.92
54666;BME280;40566;50.006;36.180;2022-11-09T04:35:37;100639.34;;;3.05;75.08
54666;BME280;40566;50.006;36.180;2022-11-09T04:40:38;100648.78;;;3.09;74.90
54666;BME280;40566;50.006;36.180;2022-11-09T04:45:38;100639.53;;;3.14;74.89
54666;BME280;40566;50.006;36.180;2022-11-09T04:50:39;100653.22;;;3.18;74.58
54666;BME280;40566;50.006;36.180;2022-11-09T04:55:40;100660.22;;;3.31;74.51
54666;BME280;40566;50.006;36.180;2022-11-09T05:00:41;100662.81;;;3.33;74.42
54666;BME280;40566;50.006;36.180;2022-11-09T05:05:41;100667.22;;;3.40;74.19
54666;BME280;40566;50.006;36.180;2022-11-09T05:10:42;100668.94;;;3.43;74.24
54666;BME280;40566;50.006;36.180;2022-11-09T05:15:43;100680.00;;;3.40;74.55
54666;BME280;40566;50.006;36.180;2022-11-09T05:20:43;100685.22;;;3.46;74.25
54666;BME280;40566;50.006;36.180;2022-11-09T05:25:44;100686.09;;;3.48;74.44
54666;BME280;40566;50.006;36.180;2022-11-09T05:30:45;100677.56;;;3.49;74.30
54666;BME280;40566;50.006;36.180;2022-11-09T05:35:46;100682.91;;;3.62;74.13
54666;BME280;40566;50.006;36.180;2022-11-09T05:40:48;100689.03;;;3.71;73.89
54666;BME280;40566;50.006;36.180;2022-11-09T05:45:48;100683.78;;;3.64;74.08
54666;BME280;40566;50.006;36.180;2022-11-09T05:50:49;100695.91;;;3.75;73.90
54666;BME280;40566;50.006;36.180;2022-11-09T05:55:50;100697.59;;;3.73;74.06
54666;BME280;40566;50.006;36.180;2022-11-09T06:00:50;100698.47;;;3.75;74.40
54666;BME280;40566;50.006;36.180;2022-11-09T06:05:51;100693.47;;;3.83;74.01
54666;BME280;40566;50.006;36.180;2022-11-09T15:19:21;100793.41;;;5.19;77.22
54666;BME280;40566;50.006;36.180;2022-11-09T15:24:25;100799.38;;;5.16;77.96
54666;BME280;40566;50.006;36.180;2022-11-09T15:34:41;100803.78;;;5.28;77.60
54666;BME280;40566;50.006;36.180;2022-11-09T15:39:43;100815.84;;;5.37;77.36
54666;BME280;40566;50.006;36.180;2022-11-09T15:44:43;100812.38;;;5.32;77.38
54666;BME280;40566;50.006;36.180;2022-11-09T15:49:44;100814.97;;;5.35;77.05
54666;BME280;40566;50.006;36.180;2022-11-09T15:54:44;100807.31;;;5.38;76.95
54666;BME280;40566;50.006;36.180;2022-11-09T15:59:46;100805.38;;;5.17;77.37
54666;BME280;40566;50.006;36.180;2022-11-09T16:04:47;100802.69;;;5.06;77.76
54666;BME280;40566;50.006;36.180;2022-11-09T16:09:48;100797.41;;;4.94;77.80
54666;BME280;40566;50.006;36.180;2022-11-09T16:14:49;100806.06;;;5.02;77.71
54666;BME280;40566;50.006;36.180;2022-11-09T16:19:51;100806.25;;;5.19;77.29
54666;BME280;40566;50.006;36.180;2022-11-09T16:24:51;100811.44;;;5.24;76.90
54666;BME280;40566;50.006;36.180;2022-11-09T16:29:53;100817.41;;;5.23;76.74
54666;BME280;40566;50.006;36.180;2022-11-09T16:34:53;100819.03;;;5.16;77.01
54666;BME280;40566;50.006;36.180;2022-11-09T16:39:57;100819.84;;;5.12;77.10
54666;BME280;40566;50.006;36.180;2022-11-09T16:45:06;100819.88;;;5.15;77.05
54666;BME280;40566;50.006;36.180;2022-11-09T16:50:08;100816.53;;;5.22;76.89
54666;BME280;40566;50.006;36.180;2022-11-09T16:55:09;100826.75;;;5.16;76.85
54666;BME280;40566;50.006;36.180;2022-11-09T17:00:10;100823.38;;;5.23;76.77
54666;BME280;40566;50.006;36.180;2022-11-09T17:05:12;100832.84;;;5.29;76.71
54666;BME280;40566;50.006;36.180;2022-11-09T17:10:13;100824.34;;;5.30;76.52
54666;BME280;40566;50.006;36.180;2022-11-09T17:15:14;100826.03;;;5.31;76.75
54666;BME280;40566;50.006;36.180;2022-11-09T17:20:16;100830.44;;;5.40;76.41
54666;BME280;40566;50.006;36.180;2022-11-09T17:25:17;100829.56;;;5.39;76.36
54666;BME280;40566;50.006;36.180;2022-11-09T17:30:17;100831.22;;;5.34;76.57
54666;BME280;40566;50.006;36.180;2022-11-09T17:35:18;100827.72;;;5.29;76.54
54666;BME280;40566;50.006;36.180;2022-11-09T17:40:18;100827.56;;;5.13;77.24
54666;BME280;40566;50.006;36.180;2022-11-09T17:45:20;100829.13;;;5.02;77.49
54666;BME280;40566;50.006;36.180;2022-11-09T17:50:21;100828.94;;;4.87;77.68
54666;BME280;40566;50.006;36.180;2022-11-09T17:55:22;100839.13;;;4.84;77.73
54666;BME280;40566;50.006;36.180;2022-11-09T18:00:22;100844.28;;;4.85;77.61
54666;BME280;40566;50.006;36.180;2022-11-09T18:05:23;100844.47;;;4.99;77.11
54666;BME280;40566;50.006;36.180;2022-11-09T18:10:24;100843.72;;;5.09;76.79
54666;BME280;40566;50.006;36.180;2022-11-09T18:15:24;100853.22;;;5.13;76.78
54666;BME280;40566;50.006;36.180;2022-11-09T18:20:25;100845.34;;;5.01;77.01
54666;BME280;40566;50.006;36.180;2022-11-09T18:25:25;100848.81;;;5.05;76.88
54666;BME280;40566;50.006;36.180;2022-11-09T18:30:26;100839.34;;;4.99;77.13
54666;BME280;40566;50.006;36.180;2022-11-09T18:35:27;100853.97;;;5.06;76.96
54666;BME280;40566;50.006;36.180;2022-11-09T18:40:27;100858.22;;;5.04;76.82
54666;BME280;40566;50.006;36.180;2022-11-09T18:45:28;100859.91;;;5.02;77.14
54666;BME280;40566;50.006;36.180;2022-11-09T18:50:29;100876.91;;;4.97;77.15
54666;BME280;40566;50.006;36.180;2022-11-09T18:55:29;100880.22;;;4.87;77.58
54666;BME280;40566;50.006;36.180;2022-11-09T19:00:30;100879.00;;;4.62;78.14
54666;BME280;40566;50.006;36.180;2022-11-09T19:05:30;100873.84;;;4.59;78.32
54666;BME280;40566;50.006;36.180;2022-11-09T19:10:34;100878.22;;;4.67;77.95
54666;BME280;40566;50.006;36.180;2022-11-09T19:15:38;100878.47;;;4.84;77.37
54666;BME280;40566;50.006;36.180;2022-11-09T19:20:39;100881.16;;;4.92;77.15
54666;BME280;40566;50.006;36.180;2022-11-09T19:25:40;100885.41;;;4.93;77.29
54666;BME280;40566;50.006;36.180;2022-11-09T19:30:41;100893.09;;;4.90;77.27
54666;BME280;40566;50.006;36.180;2022-11-09T19:35:41;100902.47;;;4.91;77.33
54666;BME280;40566;50.006;36.180;2022-11-09T19:40:42;100897.34;;;4.91;77.20
54666;BME280;40566;50.006;36.180;2022-11-09T19:45:42;100895.66;;;4.90;77.39
54666;BME280;40566;50.006;36.180;2022-11-09T19:50:47;100896.59;;;4.96;77.01
54666;BME280;40566;50.006;36.180;2022-11-09T19:55:49;100896.44;;;4.87;77.24
54666;BME280;40566;50.006;36.180;2022-11-09T20:00:49;100895.53;;;4.84;77.23
54666;BME280;40566;50.006;36.180;2022-11-09T20:05:53;100897.28;;;4.85;77.22
54666;BME280;40566;50.006;36.180;2022-11-09T20:10:54;100891.31;;;4.87;77.38
54666;BME280;40566;50.006;36.180;2022-11-09T20:16:01;100898.81;;;4.73;77.54
54666;BME280;40566;50.006;36.180;2022-11-09T20:21:02;100892.00;;;4.75;77.69
54666;BME280;40566;50.006;36.180;2022-11-09T20:26:08;100893.69;;;4.73;77.77
54666;BME280;40566;50.006;36.180;2022-11-09T20:31:14;100886.94;;;4.79;77.57
54666;BME280;40566;50.006;36.180;2022-11-09T20:36:15;100890.38;;;4.81;77.32
54666;BME280;40566;50.006;36.180;2022-11-09T20:41:18;100901.41;;;4.75;77.48
54666;BME280;40566;50.006;36.180;2022-11-09T20:46:20;100891.06;;;4.69;77.24
54666;BME280;40566;50.006;36.180;2022-11-09T20:51:22;100885.97;;;4.70;77.34
54666;BME280;40566;50.006;36.180;2022-11-09T20:56:23;100900.47;;;4.68;77.09
54666;BME280;40566;50.006;36.180;2022-11-09T21:01:24;100895.25;;;4.62;77.39
54666;BME280;40566;50.006;36.180;2022-11-09T21:06:25;100897.72;;;4.57;77.29
54666;BME280;40566;50.006;36.180;2022-11-09T21:11:26;100906.16;;;4.50;77.52
54666;BME280;40566;50.006;36.180;2022-11-09T21:16:56;100906.16;;;4.50;77.47
54666;BME280;40566;50.006;36.180;2022-11-09T21:21:56;100908.53;;;4.40;77.37
54666;BME280;40566;50.006;36.180;2022-11-09T21:26:57;100913.72;;;4.44;77.54
54666;BME280;40566;50.006;36.180;2022-11-09T21:32:18;100911.19;;;4.46;77.22
54666;BME280;40566;50.006;36.180;2022-11-09T21:37:19;100901.56;;;4.29;77.60
54666;BME280;40566;50.006;36.180;2022-11-09T21:42:20;100903.31;;;4.33;77.54
54666;BME280;40566;50.006;36.180;2022-11-09T21:47:22;100910.78;;;4.20;77.76
54666;BME280;40566;50.006;36.180;2022-11-09T21:52:23;100916.84;;;4.26;77.78
54666;BME280;40566;50.006;36.180;2022-11-09T21:57:23;100906.78;;;4.35;77.35
54666;BME280;40566;50.006;36.180;2022-11-09T22:02:24;100905.88;;;4.33;77.35
54666;BME280;40566;50.006;36.180;2022-11-09T22:07:24;100907.50;;;4.28;77.61
54666;BME280;40566;50.006;36.180;2022-11-09T22:12:25;100907.47;;;4.25;77.41
54666;BME280;40566;50.006;36.180;2022-11-09T22:17:44;100907.97;;;4.06;78.04
54666;BME280;40566;50.006;36.180;2022-11-09T22:22:45;100909.56;;;3.99;78.01
54666;BME280;40566;50.006;36.180;2022-11-09T22:27:45;100907.03;;;4.01;77.95
54666;BME280;40566;50.006;36.180;2022-11-09T22:32:46;100918.28;;;4.10;77.66
54666;BME280;40566;50.006;36.180;2022-11-09T22:37:46;100907.25;;;4.14;77.51
54666;BME280;40566;50.006;36.180;2022-11-09T22:42:54;100907.28;;;4.16;77.32
54666;BME280;40566;50.006;36.180;2022-11-09T22:47:55;100917.50;;;4.14;77.41
54666;BME280;40566;50.006;36.180;2022-11-09T22:52:55;100921.59;;;4.05;77.47
54666;BME280;40566;50.006;36.180;2022-11-09T22:57:56;100927.28;;;3.88;78.21
54666;BME280;40566;50.006;36.180;2022-11-09T23:02:57;100919.69;;;3.91;78.10
54666;BME280;40566;50.006;36.180;2022-11-09T23:07:58;100916.97;;;3.84;78.32
54666;BME280;40566;50.006;36.180;2022-11-09T23:12:58;100913.50;;;3.80;78.42
54666;BME280;40566;50.006;36.180;2022-11-09T23:17:59;100909.56;;;3.99;77.95
54666;BME280;40566;50.006;36.180;2022-11-09T23:23:18;100919.81;;;4.01;77.70
54666;BME280;40566;50.006;36.180;2022-11-09T23:28:19;100916.31;;;3.94;77.94
54666;BME280;40566;50.006;36.180;2022-11-09T23:33:20;100925.72;;;3.95;77.72
54666;BME280;40566;50.006;36.180;2022-11-09T23:38:20;100925.84;;;4.01;77.25
54666;BME280;40566;50.006;36.180;2022-11-09T23:43:21;100930.00;;;3.96;77.45
54666;BME280;40566;50.006;36.180;2022-11-09T23:48:22;100930.84;;;3.96;77.44
54666;BME280;40566;50.006;36.180;2022-11-09T23:53:23;100927.41;;;3.94;77.60
54666;BME280;40566;50.006;36.180;2022-11-09T23:58:23;100940.09;;;3.88;77.71
